RYR84GX EGSS-LPPR
Flight info
| Callsign | RYR84GX |
|---|---|
| Flight time | 1h 57m |
| Altitude | 33000 |
| Route | NUGBO M183 SILVA Q41 SAM M195 MARUK/N0451F370 M195 LORKU DCT LOTEE DCT ELTEP/N0386F230 T328 ASPOR |
| Aircraft | B738/M-SDE3FGIJ1LRWYZ/SB1 |
Departure
| Time | 2026-05-07 07:53 |
|---|---|
| Airport | London Stansted Airport (EGSS) |
Arrival
| Time | 2026-05-07 09:50 |
|---|---|
| Airport | Francisco de Sá Carneiro Airport (LPPR) |
| Time | Latitude | Longitude | Altitude | Speed | Heading |
|---|---|---|---|---|---|
| 2026-05-07 07:17 | 51.89294 | 0.26130 | 360 ft | 0 kts | 223° |
| 2026-05-07 07:40 | 51.89308 | 0.26151 | 358 ft | 4 kts | 223° |
| 2026-05-07 07:40 | 51.89324 | 0.26175 | 355 ft | 4 kts | 229° |
| 2026-05-07 07:40 | 51.89330 | 0.26204 | 356 ft | 4 kts | 302° |
| 2026-05-07 07:40 | 51.89314 | 0.26234 | 358 ft | 3 kts | 313° |
| 2026-05-07 07:41 | 51.89312 | 0.26238 | 357 ft | 0 kts | 313° |
| 2026-05-07 07:43 | 51.89326 | 0.26214 | 358 ft | 7 kts | 313° |
| 2026-05-07 07:44 | 51.89372 | 0.26134 | 350 ft | 11 kts | 313° |
| 2026-05-07 07:44 | 51.89426 | 0.26040 | 348 ft | 11 kts | 313° |
| 2026-05-07 07:44 | 51.89479 | 0.25948 | 351 ft | 11 kts | 313° |
| 2026-05-07 07:44 | 51.89532 | 0.25861 | 352 ft | 11 kts | 322° |
| 2026-05-07 07:45 | 51.89597 | 0.25788 | 348 ft | 12 kts | 310° |
| 2026-05-07 07:45 | 51.89589 | 0.25670 | 351 ft | 11 kts | 227° |
| 2026-05-07 07:45 | 51.89531 | 0.25583 | 351 ft | 11 kts | 223° |
| 2026-05-07 07:45 | 51.89467 | 0.25486 | 348 ft | 15 kts | 223° |
| 2026-05-07 07:46 | 51.89392 | 0.25372 | 353 ft | 15 kts | 223° |
| 2026-05-07 07:46 | 51.89313 | 0.25253 | 355 ft | 16 kts | 223° |
| 2026-05-07 07:46 | 51.89245 | 0.25122 | 353 ft | 15 kts | 238° |
| 2026-05-07 07:46 | 51.89183 | 0.24989 | 348 ft | 14 kts | 225° |
| 2026-05-07 07:47 | 51.89112 | 0.24884 | 351 ft | 14 kts | 222° |
| 2026-05-07 07:47 | 51.89041 | 0.24784 | 348 ft | 13 kts | 220° |
| 2026-05-07 07:47 | 51.88977 | 0.24682 | 348 ft | 13 kts | 227° |
| 2026-05-07 07:47 | 51.88906 | 0.24571 | 351 ft | 15 kts | 223° |
| 2026-05-07 07:48 | 51.88824 | 0.24445 | 348 ft | 17 kts | 223° |
| 2026-05-07 07:48 | 51.88733 | 0.24313 | 351 ft | 18 kts | 221° |
| 2026-05-07 07:48 | 51.88636 | 0.24169 | 348 ft | 19 kts | 223° |
| 2026-05-07 07:48 | 51.88534 | 0.24016 | 351 ft | 20 kts | 223° |
| 2026-05-07 07:49 | 51.88429 | 0.23857 | 348 ft | 21 kts | 223° |
| 2026-05-07 07:49 | 51.88322 | 0.23698 | 352 ft | 20 kts | 222° |
| 2026-05-07 07:49 | 51.88219 | 0.23545 | 348 ft | 20 kts | 223° |
| 2026-05-07 07:49 | 51.88120 | 0.23395 | 348 ft | 19 kts | 223° |
| 2026-05-07 07:50 | 51.88023 | 0.23250 | 355 ft | 19 kts | 223° |
| 2026-05-07 07:50 | 51.87930 | 0.23111 | 351 ft | 18 kts | 223° |
| 2026-05-07 07:50 | 51.87833 | 0.22964 | 348 ft | 20 kts | 223° |
| 2026-05-07 07:50 | 51.87732 | 0.22813 | 354 ft | 20 kts | 223° |
| 2026-05-07 07:51 | 51.87632 | 0.22665 | 354 ft | 19 kts | 223° |
| 2026-05-07 07:51 | 51.87536 | 0.22520 | 352 ft | 14 kts | 223° |
| 2026-05-07 07:51 | 51.87545 | 0.22376 | 339 ft | 16 kts | 315° |
| 2026-05-07 07:51 | 51.87634 | 0.22265 | 335 ft | 12 kts | 336° |
| 2026-05-07 07:52 | 51.87684 | 0.22258 | 337 ft | 5 kts | 28° |
| 2026-05-07 07:52 | 51.87711 | 0.22296 | 336 ft | 8 kts | 43° |
| 2026-05-07 07:52 | 51.87869 | 0.22534 | 339 ft | 66 kts | 43° |
| 2026-05-07 07:52 | 51.88387 | 0.23310 | 337 ft | 133 kts | 42° |
| 2026-05-07 07:53 | 51.89174 | 0.24484 | 652 ft | 161 kts | 44° |
| 2026-05-07 07:53 | 51.89997 | 0.25736 | 1510 ft | 163 kts | 45° |
| 2026-05-07 07:53 | 51.90831 | 0.27006 | 2173 ft | 168 kts | 45° |
| 2026-05-07 07:53 | 51.91704 | 0.28339 | 2611 ft | 181 kts | 44° |
| 2026-05-07 07:54 | 51.92783 | 0.29548 | 2938 ft | 196 kts | 24° |
| 2026-05-07 07:54 | 51.94105 | 0.29970 | 3327 ft | 202 kts | 358° |
| 2026-05-07 07:54 | 51.95490 | 0.29375 | 3687 ft | 213 kts | 330° |
| 2026-05-07 07:54 | 51.96579 | 0.27732 | 4035 ft | 221 kts | 300° |
| 2026-05-07 07:55 | 51.97076 | 0.25344 | 4496 ft | 227 kts | 278° |
| 2026-05-07 07:55 | 51.97307 | 0.22764 | 4931 ft | 241 kts | 276° |
| 2026-05-07 07:55 | 51.97560 | 0.19954 | 5176 ft | 262 kts | 277° |
| 2026-05-07 07:55 | 51.97839 | 0.16961 | 5712 ft | 271 kts | 277° |
| 2026-05-07 07:56 | 51.98147 | 0.13926 | 6439 ft | 273 kts | 278° |
| 2026-05-07 07:56 | 51.98472 | 0.10867 | 7148 ft | 275 kts | 278° |
| 2026-05-07 07:56 | 51.98804 | 0.07794 | 7855 ft | 278 kts | 278° |
| 2026-05-07 07:56 | 51.98868 | 0.04626 | 8321 ft | 291 kts | 259° |
| 2026-05-07 07:57 | 51.98416 | 0.01314 | 8593 ft | 309 kts | 256° |
| 2026-05-07 07:57 | 51.97937 | -0.02092 | 9190 ft | 317 kts | 257° |
| 2026-05-07 07:57 | 51.97464 | -0.05603 | 9932 ft | 320 kts | 258° |
| 2026-05-07 07:57 | 51.96997 | -0.09148 | 10642 ft | 322 kts | 258° |
| 2026-05-07 07:58 | 51.96532 | -0.12707 | 11413 ft | 324 kts | 258° |
| 2026-05-07 07:58 | 51.96065 | -0.16293 | 12094 ft | 329 kts | 258° |
| 2026-05-07 07:58 | 51.95578 | -0.20024 | 12442 ft | 345 kts | 258° |
| 2026-05-07 07:58 | 51.95075 | -0.23869 | 13022 ft | 352 kts | 258° |
| 2026-05-07 07:59 | 51.94561 | -0.27787 | 13774 ft | 355 kts | 258° |
| 2026-05-07 07:59 | 51.94044 | -0.31718 | 14481 ft | 358 kts | 258° |
| 2026-05-07 07:59 | 51.93521 | -0.35680 | 15174 ft | 361 kts | 258° |
| 2026-05-07 07:59 | 51.92991 | -0.39681 | 15884 ft | 365 kts | 258° |
| 2026-05-07 08:00 | 51.92455 | -0.43721 | 16563 ft | 368 kts | 258° |
| 2026-05-07 08:00 | 51.91914 | -0.47789 | 17256 ft | 372 kts | 257° |
| 2026-05-07 08:00 | 51.91366 | -0.51898 | 17950 ft | 375 kts | 257° |
| 2026-05-07 08:00 | 51.90809 | -0.56055 | 18576 ft | 379 kts | 257° |
| 2026-05-07 08:01 | 51.90247 | -0.60246 | 19129 ft | 383 kts | 257° |
| 2026-05-07 08:01 | 51.89678 | -0.64477 | 19697 ft | 386 kts | 257° |
| 2026-05-07 08:01 | 51.89101 | -0.68745 | 20259 ft | 390 kts | 257° |
| 2026-05-07 08:01 | 51.88519 | -0.73048 | 20789 ft | 394 kts | 257° |
| 2026-05-07 08:02 | 51.87930 | -0.77394 | 21347 ft | 397 kts | 257° |
| 2026-05-07 08:02 | 51.87332 | -0.81790 | 21836 ft | 402 kts | 257° |
| 2026-05-07 08:02 | 51.86733 | -0.86181 | 22330 ft | 406 kts | 257° |
| 2026-05-07 08:02 | 51.86120 | -0.90657 | 22826 ft | 410 kts | 257° |
| 2026-05-07 08:03 | 51.85168 | -0.95015 | 23276 ft | 414 kts | 239° |
| 2026-05-07 08:03 | 51.83360 | -0.98631 | 23739 ft | 416 kts | 220° |
| 2026-05-07 08:03 | 51.80935 | -1.01173 | 24171 ft | 418 kts | 203° |
| 2026-05-07 08:03 | 51.78146 | -1.02446 | 24590 ft | 419 kts | 189° |
| 2026-05-07 08:04 | 51.75250 | -1.03161 | 24993 ft | 422 kts | 187° |
| 2026-05-07 08:04 | 51.72334 | -1.03819 | 25372 ft | 425 kts | 187° |
| 2026-05-07 08:04 | 51.69390 | -1.04506 | 25771 ft | 428 kts | 188° |
| 2026-05-07 08:04 | 51.66443 | -1.05238 | 26177 ft | 430 kts | 188° |
| 2026-05-07 08:05 | 51.63473 | -1.06000 | 26574 ft | 433 kts | 188° |
| 2026-05-07 08:05 | 51.60503 | -1.06850 | 26946 ft | 436 kts | 192° |
| 2026-05-07 08:05 | 51.57556 | -1.08069 | 27322 ft | 438 kts | 195° |
| 2026-05-07 08:05 | 51.54611 | -1.09416 | 27670 ft | 441 kts | 195° |
| 2026-05-07 08:06 | 51.51653 | -1.10752 | 28028 ft | 443 kts | 195° |
| 2026-05-07 08:06 | 51.48665 | -1.12054 | 28390 ft | 445 kts | 194° |
| 2026-05-07 08:06 | 51.45660 | -1.13334 | 28738 ft | 448 kts | 194° |
| 2026-05-07 08:06 | 51.42640 | -1.14617 | 29069 ft | 450 kts | 194° |
| 2026-05-07 08:07 | 51.39650 | -1.15889 | 29383 ft | 452 kts | 194° |
| 2026-05-07 08:07 | 51.36604 | -1.17185 | 29710 ft | 454 kts | 194° |
| 2026-05-07 08:07 | 51.33538 | -1.18489 | 30016 ft | 456 kts | 194° |
| 2026-05-07 08:07 | 51.30461 | -1.19795 | 30339 ft | 457 kts | 195° |
| 2026-05-07 08:08 | 51.27386 | -1.21099 | 30720 ft | 455 kts | 195° |
| 2026-05-07 08:08 | 51.24329 | -1.22394 | 31166 ft | 452 kts | 195° |
| 2026-05-07 08:08 | 51.21295 | -1.23677 | 31575 ft | 451 kts | 195° |
| 2026-05-07 08:08 | 51.18266 | -1.24956 | 31920 ft | 450 kts | 195° |
| 2026-05-07 08:09 | 51.15237 | -1.26233 | 32249 ft | 449 kts | 195° |
| 2026-05-07 08:09 | 51.12211 | -1.27507 | 32609 ft | 449 kts | 195° |
| 2026-05-07 08:09 | 51.09197 | -1.28774 | 32980 ft | 447 kts | 195° |
| 2026-05-07 08:09 | 51.06191 | -1.30037 | 33343 ft | 446 kts | 195° |
| 2026-05-07 08:10 | 51.03183 | -1.31299 | 33673 ft | 446 kts | 195° |
| 2026-05-07 08:10 | 51.00185 | -1.32556 | 33981 ft | 446 kts | 195° |
| 2026-05-07 08:10 | 50.97197 | -1.33866 | 34258 ft | 445 kts | 199° |
| 2026-05-07 08:10 | 50.94341 | -1.35725 | 34505 ft | 444 kts | 208° |
| 2026-05-07 08:11 | 50.91734 | -1.38231 | 34736 ft | 443 kts | 214° |
| 2026-05-07 08:11 | 50.89175 | -1.40939 | 34984 ft | 443 kts | 214° |
| 2026-05-07 08:11 | 50.86618 | -1.43669 | 35211 ft | 443 kts | 214° |
| 2026-05-07 08:11 | 50.84050 | -1.46395 | 35461 ft | 443 kts | 214° |
| 2026-05-07 08:12 | 50.81481 | -1.49097 | 35718 ft | 443 kts | 214° |
| 2026-05-07 08:12 | 50.78910 | -1.51779 | 35930 ft | 443 kts | 214° |
| 2026-05-07 08:12 | 50.76334 | -1.54452 | 36142 ft | 443 kts | 214° |
| 2026-05-07 08:12 | 50.73752 | -1.57120 | 36368 ft | 443 kts | 214° |
| 2026-05-07 08:13 | 50.71176 | -1.59778 | 36619 ft | 442 kts | 214° |
| 2026-05-07 08:13 | 50.68607 | -1.62425 | 36874 ft | 441 kts | 214° |
| 2026-05-07 08:13 | 50.66044 | -1.65063 | 37087 ft | 441 kts | 214° |
| 2026-05-07 08:14 | 50.60860 | -1.70391 | 37074 ft | 446 kts | 214° |
| 2026-05-07 08:14 | 50.55667 | -1.75716 | 37063 ft | 443 kts | 214° |
| 2026-05-07 08:15 | 50.50552 | -1.80943 | 37059 ft | 440 kts | 213° |
| 2026-05-07 08:15 | 50.45419 | -1.86171 | 37052 ft | 438 kts | 213° |
| 2026-05-07 08:16 | 50.40307 | -1.91368 | 37056 ft | 437 kts | 213° |
| 2026-05-07 08:16 | 50.35201 | -1.96547 | 37060 ft | 437 kts | 213° |
| 2026-05-07 08:17 | 50.30127 | -2.01681 | 37057 ft | 438 kts | 213° |
| 2026-05-07 08:17 | 50.25002 | -2.06853 | 37056 ft | 439 kts | 213° |
| 2026-05-07 08:18 | 50.19820 | -2.11962 | 37055 ft | 441 kts | 213° |
| 2026-05-07 08:18 | 50.14585 | -2.17031 | 37053 ft | 443 kts | 213° |
| 2026-05-07 08:19 | 50.09345 | -2.22106 | 37049 ft | 444 kts | 213° |
| 2026-05-07 08:19 | 50.04088 | -2.27200 | 37050 ft | 445 kts | 213° |
| 2026-05-07 08:20 | 49.98824 | -2.32291 | 37050 ft | 446 kts | 213° |
| 2026-05-07 08:20 | 49.93578 | -2.37308 | 37046 ft | 446 kts | 210° |
| 2026-05-07 08:21 | 49.88012 | -2.41541 | 37047 ft | 446 kts | 206° |
| 2026-05-07 08:21 | 49.82387 | -2.45560 | 37046 ft | 445 kts | 206° |
| 2026-05-07 08:22 | 49.76784 | -2.49578 | 37044 ft | 443 kts | 206° |
| 2026-05-07 08:22 | 49.71204 | -2.53615 | 37043 ft | 442 kts | 206° |
| 2026-05-07 08:23 | 49.65637 | -2.57651 | 37041 ft | 441 kts | 206° |
| 2026-05-07 08:23 | 49.60092 | -2.61665 | 37049 ft | 440 kts | 206° |
| 2026-05-07 08:24 | 49.54555 | -2.65664 | 37050 ft | 439 kts | 206° |
| 2026-05-07 08:24 | 49.49020 | -2.69650 | 37047 ft | 439 kts | 206° |
| 2026-05-07 08:25 | 49.43522 | -2.73599 | 37051 ft | 439 kts | 206° |
| 2026-05-07 08:25 | 49.37981 | -2.77568 | 37047 ft | 439 kts | 206° |
| 2026-05-07 08:26 | 49.30599 | -2.82842 | 37044 ft | 440 kts | 206° |
| 2026-05-07 08:26 | 49.25043 | -2.86800 | 37039 ft | 440 kts | 206° |
| 2026-05-07 08:27 | 49.19485 | -2.90749 | 37036 ft | 440 kts | 206° |
| 2026-05-07 08:27 | 49.13921 | -2.94692 | 37033 ft | 441 kts | 206° |
| 2026-05-07 08:28 | 49.08355 | -2.98627 | 37032 ft | 441 kts | 206° |
| 2026-05-07 08:28 | 49.02780 | -3.02558 | 37029 ft | 441 kts | 206° |
| 2026-05-07 08:29 | 48.97250 | -3.06449 | 37026 ft | 441 kts | 206° |
| 2026-05-07 08:29 | 48.91668 | -3.10367 | 37025 ft | 441 kts | 206° |
| 2026-05-07 08:30 | 48.86091 | -3.14270 | 37018 ft | 441 kts | 206° |
| 2026-05-07 08:30 | 48.80547 | -3.18142 | 37022 ft | 441 kts | 206° |
| 2026-05-07 08:31 | 48.74969 | -3.22027 | 37020 ft | 441 kts | 206° |
| 2026-05-07 08:31 | 48.69380 | -3.25911 | 37021 ft | 441 kts | 206° |
| 2026-05-07 08:32 | 48.63798 | -3.29780 | 37017 ft | 441 kts | 206° |
| 2026-05-07 08:32 | 48.58255 | -3.33613 | 37023 ft | 440 kts | 205° |
| 2026-05-07 08:33 | 48.52687 | -3.37454 | 37022 ft | 440 kts | 205° |
| 2026-05-07 08:33 | 48.47116 | -3.41288 | 37012 ft | 440 kts | 205° |
| 2026-05-07 08:34 | 48.41540 | -3.45116 | 37013 ft | 439 kts | 205° |
| 2026-05-07 08:34 | 48.35972 | -3.48929 | 37009 ft | 439 kts | 205° |
| 2026-05-07 08:35 | 48.30403 | -3.52733 | 37008 ft | 439 kts | 205° |
| 2026-05-07 08:35 | 48.24871 | -3.56504 | 37014 ft | 439 kts | 205° |
| 2026-05-07 08:36 | 48.19303 | -3.60289 | 37006 ft | 439 kts | 205° |
| 2026-05-07 08:36 | 48.13734 | -3.64067 | 37009 ft | 439 kts | 205° |
| 2026-05-07 08:37 | 48.08207 | -3.67807 | 37009 ft | 439 kts | 205° |
| 2026-05-07 08:37 | 48.02644 | -3.71562 | 37013 ft | 439 kts | 205° |
| 2026-05-07 08:38 | 47.97082 | -3.75308 | 37017 ft | 438 kts | 205° |
| 2026-05-07 08:38 | 47.91511 | -3.79051 | 37012 ft | 439 kts | 205° |
| 2026-05-07 08:39 | 47.85947 | -3.82780 | 37019 ft | 438 kts | 205° |
| 2026-05-07 08:39 | 47.80382 | -3.86502 | 37018 ft | 438 kts | 205° |
| 2026-05-07 08:40 | 47.74844 | -3.90196 | 37014 ft | 438 kts | 205° |
| 2026-05-07 08:40 | 47.69276 | -3.93902 | 37010 ft | 438 kts | 205° |
| 2026-05-07 08:41 | 47.63714 | -3.97595 | 37020 ft | 438 kts | 205° |
| 2026-05-07 08:41 | 47.58135 | -4.01291 | 37012 ft | 438 kts | 205° |
| 2026-05-07 08:42 | 47.52604 | -4.04946 | 37012 ft | 437 kts | 205° |
| 2026-05-07 08:42 | 47.47048 | -4.08610 | 37014 ft | 437 kts | 205° |
| 2026-05-07 08:43 | 47.41492 | -4.12265 | 37008 ft | 437 kts | 205° |
| 2026-05-07 08:43 | 47.35933 | -4.15913 | 37015 ft | 437 kts | 205° |
| 2026-05-07 08:44 | 47.30383 | -4.19547 | 37015 ft | 436 kts | 205° |
| 2026-05-07 08:44 | 47.24826 | -4.23177 | 37014 ft | 436 kts | 204° |
| 2026-05-07 08:45 | 47.19276 | -4.26795 | 37016 ft | 436 kts | 204° |
| 2026-05-07 08:45 | 47.13717 | -4.30409 | 37016 ft | 436 kts | 204° |
| 2026-05-07 08:46 | 47.08210 | -4.33982 | 37018 ft | 436 kts | 204° |
| 2026-05-07 08:46 | 47.02648 | -4.37582 | 37018 ft | 436 kts | 204° |
| 2026-05-07 08:47 | 46.97095 | -4.41169 | 37019 ft | 436 kts | 204° |
| 2026-05-07 08:47 | 46.91539 | -4.44749 | 37019 ft | 436 kts | 204° |
| 2026-05-07 08:48 | 46.85980 | -4.48323 | 37022 ft | 436 kts | 204° |
| 2026-05-07 08:48 | 46.80418 | -4.51891 | 37019 ft | 436 kts | 204° |
| 2026-05-07 08:49 | 46.74855 | -4.55451 | 37015 ft | 436 kts | 204° |
| 2026-05-07 08:49 | 46.69298 | -4.59000 | 37018 ft | 436 kts | 204° |
| 2026-05-07 08:50 | 46.63743 | -4.62539 | 37017 ft | 436 kts | 204° |
| 2026-05-07 08:50 | 46.58181 | -4.66074 | 37020 ft | 436 kts | 204° |
| 2026-05-07 08:51 | 46.52651 | -4.69582 | 37020 ft | 436 kts | 204° |
| 2026-05-07 08:51 | 46.47087 | -4.73103 | 37022 ft | 436 kts | 204° |
| 2026-05-07 08:52 | 46.41522 | -4.76617 | 37017 ft | 436 kts | 204° |
| 2026-05-07 08:52 | 46.35957 | -4.80123 | 37016 ft | 436 kts | 204° |
| 2026-05-07 08:53 | 46.30392 | -4.83621 | 37016 ft | 436 kts | 204° |
| 2026-05-07 08:53 | 46.24857 | -4.87093 | 37015 ft | 436 kts | 204° |
| 2026-05-07 08:54 | 46.19290 | -4.90577 | 37014 ft | 436 kts | 204° |
| 2026-05-07 08:54 | 46.13716 | -4.94057 | 37009 ft | 436 kts | 204° |
| 2026-05-07 08:55 | 46.08149 | -4.97526 | 37009 ft | 436 kts | 204° |
| 2026-05-07 08:55 | 46.02570 | -5.00994 | 37008 ft | 436 kts | 204° |
| 2026-05-07 08:56 | 45.96998 | -5.04451 | 37007 ft | 436 kts | 204° |
| 2026-05-07 08:56 | 45.91463 | -5.07877 | 37007 ft | 436 kts | 204° |
| 2026-05-07 08:57 | 45.85882 | -5.11324 | 37009 ft | 436 kts | 204° |
| 2026-05-07 08:57 | 45.80310 | -5.14758 | 37005 ft | 436 kts | 204° |
| 2026-05-07 08:58 | 45.74734 | -5.18187 | 37005 ft | 436 kts | 204° |
| 2026-05-07 08:58 | 45.69159 | -5.21607 | 37003 ft | 436 kts | 204° |
| 2026-05-07 08:59 | 45.63585 | -5.25020 | 37000 ft | 436 kts | 204° |
| 2026-05-07 08:59 | 45.58045 | -5.28404 | 36999 ft | 436 kts | 204° |
| 2026-05-07 09:00 | 45.52472 | -5.31802 | 36999 ft | 436 kts | 204° |
| 2026-05-07 09:00 | 45.46894 | -5.35195 | 36992 ft | 436 kts | 204° |
| 2026-05-07 09:01 | 45.41316 | -5.38581 | 37005 ft | 436 kts | 204° |
| 2026-05-07 09:01 | 45.35731 | -5.41964 | 37000 ft | 436 kts | 204° |
| 2026-05-07 09:02 | 45.30156 | -5.45333 | 36991 ft | 436 kts | 204° |
| 2026-05-07 09:02 | 45.24564 | -5.48706 | 36991 ft | 436 kts | 204° |
| 2026-05-07 09:03 | 45.18975 | -5.52069 | 36995 ft | 437 kts | 204° |
| 2026-05-07 09:03 | 45.13380 | -5.55429 | 36990 ft | 437 kts | 204° |
| 2026-05-07 09:04 | 45.07779 | -5.58785 | 36985 ft | 437 kts | 204° |
| 2026-05-07 09:04 | 45.02212 | -5.62114 | 36980 ft | 437 kts | 204° |
| 2026-05-07 09:05 | 44.96597 | -5.65465 | 36980 ft | 438 kts | 204° |
| 2026-05-07 09:05 | 44.90986 | -5.68805 | 36983 ft | 438 kts | 204° |
| 2026-05-07 09:06 | 44.85359 | -5.72149 | 36976 ft | 438 kts | 204° |
| 2026-05-07 09:06 | 44.79732 | -5.75486 | 36983 ft | 438 kts | 204° |
| 2026-05-07 09:07 | 44.74106 | -5.78815 | 36980 ft | 438 kts | 204° |
| 2026-05-07 09:07 | 44.68481 | -5.82137 | 36980 ft | 439 kts | 204° |
| 2026-05-07 09:08 | 44.63181 | -5.86168 | 36992 ft | 436 kts | 216° |
| 2026-05-07 09:08 | 44.58242 | -5.91119 | 36971 ft | 436 kts | 217° |
| 2026-05-07 09:09 | 44.53312 | -5.96088 | 36965 ft | 436 kts | 216° |
| 2026-05-07 09:09 | 44.48362 | -6.01016 | 36964 ft | 436 kts | 216° |
| 2026-05-07 09:10 | 44.43394 | -6.05922 | 36966 ft | 436 kts | 216° |
| 2026-05-07 09:10 | 44.38434 | -6.10802 | 36962 ft | 437 kts | 216° |
| 2026-05-07 09:11 | 44.33458 | -6.15686 | 36960 ft | 437 kts | 216° |
| 2026-05-07 09:11 | 44.28514 | -6.20529 | 36958 ft | 437 kts | 216° |
| 2026-05-07 09:12 | 44.23536 | -6.25396 | 36957 ft | 437 kts | 216° |
| 2026-05-07 09:12 | 44.18548 | -6.30263 | 36958 ft | 438 kts | 216° |
| 2026-05-07 09:13 | 44.13542 | -6.35137 | 36951 ft | 438 kts | 216° |
| 2026-05-07 09:13 | 44.08539 | -6.39998 | 36953 ft | 439 kts | 216° |
| 2026-05-07 09:14 | 44.03532 | -6.44853 | 36948 ft | 439 kts | 216° |
| 2026-05-07 09:14 | 43.98515 | -6.49707 | 36944 ft | 440 kts | 216° |
| 2026-05-07 09:15 | 43.93492 | -6.54556 | 36940 ft | 440 kts | 216° |
| 2026-05-07 09:15 | 43.89312 | -6.58584 | 36938 ft | 441 kts | 216° |
| 2026-05-07 09:16 | 43.83439 | -6.64232 | 36936 ft | 442 kts | 216° |
| 2026-05-07 09:16 | 43.78384 | -6.69082 | 36932 ft | 443 kts | 216° |
| 2026-05-07 09:17 | 43.74168 | -6.73119 | 36935 ft | 443 kts | 216° |
| 2026-05-07 09:17 | 43.69091 | -6.77971 | 36930 ft | 444 kts | 216° |
| 2026-05-07 09:18 | 43.63992 | -6.82834 | 36930 ft | 445 kts | 216° |
| 2026-05-07 09:18 | 43.58896 | -6.87685 | 36924 ft | 445 kts | 216° |
| 2026-05-07 09:19 | 43.53793 | -6.92531 | 36929 ft | 446 kts | 216° |
| 2026-05-07 09:19 | 43.48682 | -6.97375 | 36927 ft | 446 kts | 216° |
| 2026-05-07 09:20 | 43.43600 | -7.02182 | 36918 ft | 446 kts | 216° |
| 2026-05-07 09:20 | 43.38480 | -7.07014 | 36923 ft | 446 kts | 216° |
| 2026-05-07 09:21 | 43.33358 | -7.11838 | 36921 ft | 446 kts | 216° |
| 2026-05-07 09:21 | 43.28238 | -7.16650 | 36915 ft | 446 kts | 216° |
| 2026-05-07 09:22 | 43.23107 | -7.21463 | 36912 ft | 446 kts | 216° |
| 2026-05-07 09:22 | 43.17984 | -7.26258 | 36918 ft | 446 kts | 216° |
| 2026-05-07 09:23 | 43.12861 | -7.31044 | 36715 ft | 449 kts | 216° |
| 2026-05-07 09:23 | 43.10255 | -7.33476 | 36201 ft | 451 kts | 216° |
| 2026-05-07 09:23 | 43.07669 | -7.35885 | 35587 ft | 450 kts | 216° |
| 2026-05-07 09:24 | 43.05149 | -7.38229 | 34980 ft | 451 kts | 216° |
| 2026-05-07 09:24 | 43.02559 | -7.40637 | 34501 ft | 448 kts | 217° |
| 2026-05-07 09:24 | 43.00022 | -7.42992 | 34030 ft | 446 kts | 217° |
| 2026-05-07 09:24 | 42.97463 | -7.45366 | 33506 ft | 443 kts | 217° |
| 2026-05-07 09:25 | 42.94917 | -7.47725 | 33013 ft | 440 kts | 217° |
| 2026-05-07 09:25 | 42.92392 | -7.50064 | 32537 ft | 437 kts | 217° |
| 2026-05-07 09:25 | 42.89888 | -7.52381 | 32079 ft | 433 kts | 216° |
| 2026-05-07 09:25 | 42.87403 | -7.54678 | 31632 ft | 429 kts | 216° |
| 2026-05-07 09:26 | 42.84934 | -7.56957 | 31193 ft | 426 kts | 216° |
| 2026-05-07 09:26 | 42.82491 | -7.59211 | 30763 ft | 423 kts | 216° |
| 2026-05-07 09:26 | 42.80065 | -7.61446 | 30329 ft | 420 kts | 216° |
| 2026-05-07 09:26 | 42.77653 | -7.63667 | 29886 ft | 416 kts | 216° |
| 2026-05-07 09:27 | 42.75259 | -7.65870 | 29385 ft | 413 kts | 216° |
| 2026-05-07 09:27 | 42.72922 | -7.68017 | 28949 ft | 408 kts | 216° |
| 2026-05-07 09:27 | 42.68261 | -7.72296 | 28068 ft | 400 kts | 216° |
| 2026-05-07 09:28 | 42.65966 | -7.74399 | 27637 ft | 396 kts | 216° |
| 2026-05-07 09:28 | 42.63687 | -7.76485 | 27205 ft | 393 kts | 215° |
| 2026-05-07 09:28 | 42.61326 | -7.78320 | 26793 ft | 390 kts | 206° |
| 2026-05-07 09:28 | 42.58784 | -7.79571 | 26382 ft | 388 kts | 197° |
| 2026-05-07 09:29 | 42.56190 | -7.80548 | 25976 ft | 385 kts | 196° |
| 2026-05-07 09:29 | 42.53601 | -7.81484 | 25566 ft | 383 kts | 196° |
| 2026-05-07 09:29 | 42.51032 | -7.82408 | 25163 ft | 380 kts | 196° |
| 2026-05-07 09:29 | 42.48482 | -7.83335 | 24750 ft | 378 kts | 196° |
| 2026-05-07 09:30 | 42.45959 | -7.84260 | 24349 ft | 375 kts | 196° |
| 2026-05-07 09:30 | 42.43443 | -7.85191 | 23944 ft | 373 kts | 196° |
| 2026-05-07 09:30 | 42.40977 | -7.86108 | 23557 ft | 371 kts | 196° |
| 2026-05-07 09:30 | 42.38501 | -7.87031 | 23105 ft | 368 kts | 196° |
| 2026-05-07 09:31 | 42.36031 | -7.87953 | 22657 ft | 365 kts | 196° |
| 2026-05-07 09:31 | 42.33591 | -7.88862 | 22239 ft | 362 kts | 196° |
| 2026-05-07 09:31 | 42.31173 | -7.89763 | 21852 ft | 359 kts | 196° |
| 2026-05-07 09:31 | 42.28771 | -7.90658 | 21436 ft | 356 kts | 196° |
| 2026-05-07 09:32 | 42.26385 | -7.91546 | 21025 ft | 354 kts | 196° |
| 2026-05-07 09:32 | 42.24021 | -7.92426 | 20622 ft | 351 kts | 196° |
| 2026-05-07 09:32 | 42.21670 | -7.93299 | 20238 ft | 349 kts | 196° |
| 2026-05-07 09:32 | 42.19333 | -7.94167 | 19846 ft | 347 kts | 196° |
| 2026-05-07 09:33 | 42.17011 | -7.95028 | 19458 ft | 345 kts | 196° |
| 2026-05-07 09:33 | 42.14695 | -7.95887 | 19080 ft | 343 kts | 196° |
| 2026-05-07 09:33 | 42.12424 | -7.96728 | 18692 ft | 342 kts | 196° |
| 2026-05-07 09:33 | 42.10137 | -7.97575 | 18308 ft | 341 kts | 196° |
| 2026-05-07 09:34 | 42.07856 | -7.98418 | 17886 ft | 339 kts | 196° |
| 2026-05-07 09:34 | 42.05590 | -7.99255 | 17470 ft | 337 kts | 196° |
| 2026-05-07 09:34 | 42.03340 | -8.00087 | 17062 ft | 335 kts | 196° |
| 2026-05-07 09:34 | 42.01101 | -8.00914 | 16680 ft | 332 kts | 196° |
| 2026-05-07 09:35 | 41.98876 | -8.01734 | 16304 ft | 329 kts | 196° |
| 2026-05-07 09:35 | 41.96676 | -8.02545 | 15917 ft | 327 kts | 196° |
| 2026-05-07 09:35 | 41.94487 | -8.03353 | 15540 ft | 325 kts | 196° |
| 2026-05-07 09:35 | 41.92316 | -8.04150 | 15171 ft | 323 kts | 196° |
| 2026-05-07 09:36 | 41.90150 | -8.04948 | 14796 ft | 321 kts | 196° |
| 2026-05-07 09:36 | 41.88012 | -8.05782 | 14429 ft | 319 kts | 202° |
| 2026-05-07 09:36 | 41.86152 | -8.07364 | 14051 ft | 318 kts | 225° |
| 2026-05-07 09:36 | 41.84805 | -8.09676 | 13777 ft | 313 kts | 235° |
| 2026-05-07 09:37 | 41.83592 | -8.12118 | 13265 ft | 316 kts | 236° |
| 2026-05-07 09:37 | 41.82394 | -8.14569 | 12913 ft | 312 kts | 236° |
| 2026-05-07 09:37 | 41.81206 | -8.16997 | 12541 ft | 310 kts | 236° |
| 2026-05-07 09:37 | 41.80019 | -8.19407 | 12177 ft | 309 kts | 235° |
| 2026-05-07 09:38 | 41.78832 | -8.21804 | 11788 ft | 309 kts | 235° |
| 2026-05-07 09:38 | 41.77637 | -8.24204 | 11300 ft | 311 kts | 235° |
| 2026-05-07 09:38 | 41.76433 | -8.26614 | 10900 ft | 311 kts | 235° |
| 2026-05-07 09:38 | 41.75227 | -8.29022 | 10535 ft | 305 kts | 235° |
| 2026-05-07 09:39 | 41.74047 | -8.31377 | 9958 ft | 304 kts | 235° |
| 2026-05-07 09:39 | 41.72909 | -8.33645 | 9821 ft | 291 kts | 235° |
| 2026-05-07 09:39 | 41.71794 | -8.35863 | 9640 ft | 284 kts | 235° |
| 2026-05-07 09:39 | 41.70694 | -8.38053 | 9321 ft | 283 kts | 235° |
| 2026-05-07 09:40 | 41.69594 | -8.40236 | 9021 ft | 281 kts | 234° |
| 2026-05-07 09:40 | 41.68527 | -8.42355 | 8875 ft | 267 kts | 234° |
| 2026-05-07 09:40 | 41.67484 | -8.44424 | 8264 ft | 271 kts | 234° |
| 2026-05-07 09:40 | 41.66421 | -8.46525 | 7736 ft | 273 kts | 234° |
| 2026-05-07 09:41 | 41.65360 | -8.48626 | 7256 ft | 273 kts | 234° |
| 2026-05-07 09:41 | 41.64324 | -8.50680 | 7137 ft | 259 kts | 234° |
| 2026-05-07 09:41 | 41.63335 | -8.52643 | 6901 ft | 252 kts | 234° |
| 2026-05-07 09:41 | 41.62363 | -8.54565 | 6642 ft | 247 kts | 234° |
| 2026-05-07 09:42 | 41.61407 | -8.56447 | 6389 ft | 244 kts | 234° |
| 2026-05-07 09:42 | 41.60455 | -8.58327 | 6151 ft | 245 kts | 234° |
| 2026-05-07 09:42 | 41.59497 | -8.60217 | 5914 ft | 246 kts | 234° |
| 2026-05-07 09:42 | 41.58534 | -8.62114 | 5641 ft | 247 kts | 234° |
| 2026-05-07 09:43 | 41.57580 | -8.64000 | 5389 ft | 243 kts | 234° |
| 2026-05-07 09:43 | 41.56639 | -8.65854 | 5147 ft | 239 kts | 234° |
| 2026-05-07 09:43 | 41.55715 | -8.67679 | 4898 ft | 236 kts | 234° |
| 2026-05-07 09:43 | 41.54792 | -8.69480 | 4597 ft | 232 kts | 234° |
| 2026-05-07 09:44 | 41.53898 | -8.71236 | 4365 ft | 227 kts | 234° |
| 2026-05-07 09:44 | 41.53007 | -8.72984 | 4100 ft | 228 kts | 233° |
| 2026-05-07 09:44 | 41.51831 | -8.74324 | 3829 ft | 225 kts | 198° |
| 2026-05-07 09:44 | 41.50298 | -8.74491 | 3623 ft | 221 kts | 175° |
| 2026-05-07 09:45 | 41.48769 | -8.74333 | 3520 ft | 220 kts | 173° |
| 2026-05-07 09:45 | 41.47258 | -8.74026 | 3428 ft | 220 kts | 170° |
| 2026-05-07 09:45 | 41.45747 | -8.73645 | 3311 ft | 221 kts | 169° |
| 2026-05-07 09:45 | 41.44244 | -8.73243 | 3231 ft | 221 kts | 169° |
| 2026-05-07 09:46 | 41.42745 | -8.72845 | 3155 ft | 222 kts | 169° |
| 2026-05-07 09:46 | 41.41237 | -8.72449 | 2953 ft | 217 kts | 169° |
| 2026-05-07 09:46 | 41.39764 | -8.72060 | 2652 ft | 213 kts | 169° |
| 2026-05-07 09:46 | 41.38353 | -8.71686 | 2403 ft | 199 kts | 169° |
| 2026-05-07 09:47 | 41.37044 | -8.71345 | 2166 ft | 185 kts | 169° |
| 2026-05-07 09:47 | 41.35834 | -8.71021 | 1973 ft | 171 kts | 169° |
| 2026-05-07 09:47 | 41.34691 | -8.70723 | 1767 ft | 165 kts | 170° |
| 2026-05-07 09:47 | 41.33600 | -8.70438 | 1595 ft | 153 kts | 170° |
| 2026-05-07 09:48 | 41.32603 | -8.70176 | 1412 ft | 144 kts | 171° |
| 2026-05-07 09:48 | 41.31617 | -8.69917 | 1217 ft | 144 kts | 170° |
| 2026-05-07 09:48 | 41.30644 | -8.69659 | 1036 ft | 140 kts | 171° |
| 2026-05-07 09:48 | 41.29693 | -8.69412 | 841 ft | 139 kts | 171° |
| 2026-05-07 09:49 | 41.28744 | -8.69162 | 694 ft | 139 kts | 171° |
| 2026-05-07 09:49 | 41.27807 | -8.68913 | 517 ft | 136 kts | 172° |
| 2026-05-07 09:49 | 41.26877 | -8.68670 | 379 ft | 138 kts | 171° |
| 2026-05-07 09:49 | 41.25936 | -8.68415 | 244 ft | 135 kts | 172° |
| 2026-05-07 09:50 | 41.25126 | -8.68208 | 233 ft | 91 kts | 168° |
| 2026-05-07 09:50 | 41.24613 | -8.68072 | 237 ft | 72 kts | 169° |
| 2026-05-07 09:50 | 41.24145 | -8.67950 | 233 ft | 64 kts | 169° |
| 2026-05-07 09:50 | 41.23907 | -8.67874 | 234 ft | 16 kts | 129° |
| 2026-05-07 09:51 | 41.23901 | -8.67740 | 234 ft | 11 kts | 76° |
| 2026-05-07 09:51 | 41.23913 | -8.67672 | 235 ft | 5 kts | 78° |
| 2026-05-07 09:51 | 41.23915 | -8.67654 | 234 ft | 0 kts | 78° |
| 2026-05-07 09:52 | 41.23917 | -8.67643 | 234 ft | 0 kts | 78° |
| 2026-05-07 09:56 | 41.23918 | -8.67638 | 234 ft | 2 kts | 78° |
| 2026-05-07 09:56 | 41.23923 | -8.67603 | 236 ft | 6 kts | 78° |
| 2026-05-07 09:56 | 41.23934 | -8.67530 | 234 ft | 10 kts | 80° |
| 2026-05-07 09:56 | 41.23960 | -8.67450 | 235 ft | 11 kts | 49° |
| 2026-05-07 09:57 | 41.23991 | -8.67422 | 234 ft | 3 kts | 22° |
| 2026-05-07 09:57 | 41.24003 | -8.67400 | 235 ft | 0 kts | 90° |
| 2026-05-07 09:57 | 41.24000 | -8.67394 | 234 ft | 3 kts | 111° |
| 2026-05-07 09:57 | 41.23989 | -8.67356 | 238 ft | 5 kts | 108° |
| 2026-05-07 09:58 | 41.23980 | -8.67318 | 235 ft | 0 kts | 108° |
| 2026-05-07 09:58 | 41.23979 | -8.67315 | 234 ft | 3 kts | 109° |
| 2026-05-07 09:58 | 41.23976 | -8.67302 | 236 ft | 2 kts | 107° |
| 2026-05-07 09:58 | 41.23974 | -8.67295 | 238 ft | 0 kts | 108° |